sensor_id;sensor_type;location;lat;lon;timestamp;pressure;altitude;pressure_sealevel;temperature;humidity
20909;BME280;10614;53.198;6.570;2022-09-30T00:00:57;100801.88;;;9.56;100.00
20909;BME280;10614;53.198;6.570;2022-09-30T00:02:59;100803.72;;;9.54;100.00
20909;BME280;10614;53.198;6.570;2022-09-30T00:05:01;100800.28;;;9.51;100.00
20909;BME280;10614;53.198;6.570;2022-09-30T00:07:04;100795.94;;;9.50;100.00
20909;BME280;10614;53.198;6.570;2022-09-30T00:09:06;100796.78;;;9.51;100.00
20909;BME280;10614;53.198;6.570;2022-09-30T00:11:11;100792.38;;;9.51;100.00
20909;BME280;10614;53.198;6.570;2022-09-30T00:13:15;100791.53;;;9.51;100.00
20909;BME280;10614;53.198;6.570;2022-09-30T00:15:17;100790.69;;;9.50;100.00
20909;BME280;10614;53.198;6.570;2022-09-30T00:17:19;100783.69;;;9.49;100.00
20909;BME280;10614;53.198;6.570;2022-09-30T00:19:21;100798.63;;;9.49;100.00
20909;BME280;10614;53.198;6.570;2022-09-30T00:21:24;100794.25;;;9.48;100.00
20909;BME280;10614;53.198;6.570;2022-09-30T00:23:26;100788.16;;;9.47;100.00
20909;BME280;10614;53.198;6.570;2022-09-30T00:25:28;100792.56;;;9.47;100.00
20909;BME280;10614;53.198;6.570;2022-09-30T00:27:31;100789.13;;;9.45;100.00
20909;BME280;10614;53.198;6.570;2022-09-30T00:29:33;100784.84;;;9.42;100.00
20909;BME280;10614;53.198;6.570;2022-09-30T00:31:35;100791.88;;;9.42;100.00
20909;BME280;10614;53.198;6.570;2022-09-30T00:33:37;100793.75;;;9.38;100.00
20909;BME280;10614;53.198;6.570;2022-09-30T00:35:39;100789.34;;;9.39;100.00
20909;BME280;10614;53.198;6.570;2022-09-30T00:37:41;100792.94;;;9.36;100.00
20909;BME280;10614;53.198;6.570;2022-09-30T00:39:42;100791.28;;;9.34;100.00
20909;BME280;10614;53.198;6.570;2022-09-30T00:41:46;100793.09;;;9.32;100.00
20909;BME280;10614;53.198;6.570;2022-09-30T00:43:49;100793.16;;;9.30;100.00
20909;BME280;10614;53.198;6.570;2022-09-30T00:45:55;100806.50;;;9.24;100.00
20909;BME280;10614;53.198;6.570;2022-09-30T00:48:03;100811.03;;;9.20;100.00
20909;BME280;10614;53.198;6.570;2022-09-30T00:50:19;100803.19;;;9.19;100.00
20909;BME280;10614;53.198;6.570;2022-09-30T00:52:23;100799.72;;;9.18;100.00
20909;BME280;10614;53.198;6.570;2022-09-30T00:54:28;100799.75;;;9.17;100.00
20909;BME280;10614;53.198;6.570;2022-09-30T00:56:34;100802.41;;;9.15;100.00
20909;BME280;10614;53.198;6.570;2022-09-30T00:58:41;100804.19;;;9.15;100.00
20909;BME280;10614;53.198;6.570;2022-09-30T01:00:48;100797.28;;;9.12;100.00
20909;BME280;10614;53.198;6.570;2022-09-30T01:02:52;100800.72;;;9.14;100.00
20909;BME280;10614;53.198;6.570;2022-09-30T01:04:55;100799.88;;;9.14;100.00
20909;BME280;10614;53.198;6.570;2022-09-30T01:06:58;100795.50;;;9.13;100.00
20909;BME280;10614;53.198;6.570;2022-09-30T01:09:02;100793.81;;;9.12;100.00
20909;BME280;10614;53.198;6.570;2022-09-30T01:11:04;100797.28;;;9.12;100.00
20909;BME280;10614;53.198;6.570;2022-09-30T01:13:06;100801.69;;;9.12;100.00
20909;BME280;10614;53.198;6.570;2022-09-30T01:15:08;100797.44;;;9.07;100.00
20909;BME280;10614;53.198;6.570;2022-09-30T01:17:15;100802.66;;;9.09;100.00
20909;BME280;10614;53.198;6.570;2022-09-30T01:19:34;100803.53;;;9.08;100.00
20909;BME280;10614;53.198;6.570;2022-09-30T01:21:58;100808.81;;;9.08;100.00
20909;BME280;10614;53.198;6.570;2022-09-30T01:24:36;100805.38;;;9.06;100.00
20909;BME280;10614;53.198;6.570;2022-09-30T01:26:52;100798.44;;;9.03;100.00
20909;BME280;10614;53.198;6.570;2022-09-30T01:31:48;100801.88;;;9.05;100.00
20909;BME280;10614;53.198;6.570;2022-09-30T01:33:55;100802.94;;;9.01;100.00
20909;BME280;10614;53.198;6.570;2022-09-30T01:36:14;100808.09;;;9.03;100.00
20909;BME280;10614;53.198;6.570;2022-09-30T01:38:25;100804.66;;;9.01;100.00
20909;BME280;10614;53.198;6.570;2022-09-30T01:40:41;100802.00;;;9.02;100.00
20909;BME280;10614;53.198;6.570;2022-09-30T01:42:45;100802.94;;;9.01;100.00
20909;BME280;10614;53.198;6.570;2022-09-30T01:44:55;100802.00;;;9.02;100.00
20909;BME280;10614;53.198;6.570;2022-09-30T01:47:07;100802.03;;;9.01;100.00
20909;BME280;10614;53.198;6.570;2022-09-30T01:49:17;100808.22;;;9.00;100.00
20909;BME280;10614;53.198;6.570;2022-09-30T01:51:27;100811.72;;;8.99;100.00
20909;BME280;10614;53.198;6.570;2022-09-30T01:53:37;100804.78;;;8.98;100.00
20909;BME280;10614;53.198;6.570;2022-09-30T01:55:46;100802.19;;;8.96;100.00
20909;BME280;10614;53.198;6.570;2022-09-30T01:57:53;100800.47;;;8.97;100.00
20909;BME280;10614;53.198;6.570;2022-09-30T02:00:00;100798.72;;;8.96;100.00
20909;BME280;10614;53.198;6.570;2022-09-30T02:02:11;100803.16;;;8.94;100.00
20909;BME280;10614;53.198;6.570;2022-09-30T02:04:18;100807.69;;;8.90;100.00
20909;BME280;10614;53.198;6.570;2022-09-30T02:06:25;100803.47;;;8.84;100.00
20909;BME280;10614;53.198;6.570;2022-09-30T02:08:37;100815.78;;;8.82;100.00
20909;BME280;10614;53.198;6.570;2022-09-30T02:10:44;100816.72;;;8.81;100.00
20909;BME280;10614;53.198;6.570;2022-09-30T02:12:51;100813.38;;;8.76;100.00
20909;BME280;10614;53.198;6.570;2022-09-30T02:14:58;100825.88;;;8.68;100.00
20909;BME280;10614;53.198;6.570;2022-09-30T02:17:05;100827.09;;;8.58;100.00
20909;BME280;10614;53.198;6.570;2022-09-30T02:19:17;100821.03;;;8.56;100.00
20909;BME280;10614;53.198;6.570;2022-09-30T02:21:29;100820.13;;;8.57;100.00
20909;BME280;10614;53.198;6.570;2022-09-30T02:23:34;100818.31;;;8.59;100.00
20909;BME280;10614;53.198;6.570;2022-09-30T02:25:43;100813.00;;;8.60;100.00
20909;BME280;10614;53.198;6.570;2022-09-30T02:27:49;100808.59;;;8.62;100.00
20909;BME280;10614;53.198;6.570;2022-09-30T02:29:56;100813.78;;;8.64;100.00
20909;BME280;10614;53.198;6.570;2022-09-30T02:32:03;100812.88;;;8.65;100.00
20909;BME280;10614;53.198;6.570;2022-09-30T02:34:10;100813.78;;;8.64;100.00
20909;BME280;10614;53.198;6.570;2022-09-30T02:36:18;100822.50;;;8.64;100.00
20909;BME280;10614;53.198;6.570;2022-09-30T02:38:25;100822.56;;;8.63;100.00
20909;BME280;10614;53.198;6.570;2022-09-30T02:40:34;100831.38;;;8.60;100.00
20909;BME280;10614;53.198;6.570;2022-09-30T02:42:39;100837.59;;;8.58;100.00
20909;BME280;10614;53.198;6.570;2022-09-30T02:44:43;100835.91;;;8.55;100.00
20909;BME280;10614;53.198;6.570;2022-09-30T02:46:51;100831.72;;;8.50;100.00
20909;BME280;10614;53.198;6.570;2022-09-30T02:48:59;100834.47;;;8.45;100.00
20909;BME280;10614;53.198;6.570;2022-09-30T02:51:07;100831.94;;;8.43;100.00
20909;BME280;10614;53.198;6.570;2022-09-30T02:53:18;100838.06;;;8.42;100.00
20909;BME280;10614;53.198;6.570;2022-09-30T02:55:25;100834.63;;;8.40;100.00
20909;BME280;10614;53.198;6.570;2022-09-30T02:57:35;100835.50;;;8.41;100.00
20909;BME280;10614;53.198;6.570;2022-09-30T02:59:38;100837.25;;;8.40;100.00
20909;BME280;10614;53.198;6.570;2022-09-30T03:01:42;100832.00;;;8.40;100.00
20909;BME280;10614;53.198;6.570;2022-09-30T03:03:45;100832.88;;;8.39;100.00
20909;BME280;10614;53.198;6.570;2022-09-30T03:05:48;100829.44;;;8.37;100.00
20909;BME280;10614;53.198;6.570;2022-09-30T03:07:51;100833.00;;;8.36;100.00
20909;BME280;10614;53.198;6.570;2022-09-30T03:09:56;100819.94;;;8.33;100.00
20909;BME280;10614;53.198;6.570;2022-09-30T03:12:08;100819.09;;;8.33;100.00
20909;BME280;10614;53.198;6.570;2022-09-30T03:14:27;100820.03;;;8.32;100.00
20909;BME280;10614;53.198;6.570;2022-09-30T03:16:48;100828.78;;;8.31;100.00
20909;BME280;10614;53.198;6.570;2022-09-30T03:19:05;100833.19;;;8.29;100.00
20909;BME280;10614;53.198;6.570;2022-09-30T03:21:21;100832.41;;;8.27;100.00
20909;BME280;10614;53.198;6.570;2022-09-30T03:23:30;100842.09;;;8.24;100.00
20909;BME280;10614;53.198;6.570;2022-09-30T03:25:43;100840.44;;;8.22;100.00
20909;BME280;10614;53.198;6.570;2022-09-30T03:27:57;100843.94;;;8.21;100.00
20909;BME280;10614;53.198;6.570;2022-09-30T03:30:06;100841.41;;;8.18;100.00
20909;BME280;10614;53.198;6.570;2022-09-30T03:32:28;100849.38;;;8.15;100.00
20909;BME280;10614;53.198;6.570;2022-09-30T03:34:38;100850.31;;;8.12;100.00
20909;BME280;10614;53.198;6.570;2022-09-30T03:36:53;100851.22;;;8.11;100.00
20909;BME280;10614;53.198;6.570;2022-09-30T03:39:01;100846.91;;;8.10;100.00
20909;BME280;10614;53.198;6.570;2022-09-30T03:41:11;100844.31;;;8.09;100.00
20909;BME280;10614;53.198;6.570;2022-09-30T03:43:21;100847.81;;;8.08;100.00
20909;BME280;10614;53.198;6.570;2022-09-30T03:45:29;100842.66;;;8.04;100.00
20909;BME280;10614;53.198;6.570;2022-09-30T03:47:36;100847.06;;;8.04;100.00
20909;BME280;10614;53.198;6.570;2022-09-30T03:49:45;100849.72;;;8.02;100.00
20909;BME280;10614;53.198;6.570;2022-09-30T03:51:48;100850.63;;;8.01;100.00
20909;BME280;10614;53.198;6.570;2022-09-30T03:53:50;100838.38;;;8.02;100.00
20909;BME280;10614;53.198;6.570;2022-09-30T03:55:54;100841.91;;;8.01;100.00
20909;BME280;10614;53.198;6.570;2022-09-30T03:57:57;100840.19;;;8.00;100.00
20909;BME280;10614;53.198;6.570;2022-09-30T03:59:59;100853.34;;;7.98;100.00
20909;BME280;10614;53.198;6.570;2022-09-30T04:02:01;100856.88;;;7.97;100.00
20909;BME280;10614;53.198;6.570;2022-09-30T04:04:04;100853.44;;;7.95;100.00
20909;BME280;10614;53.198;6.570;2022-09-30T04:06:07;100858.66;;;7.95;100.00
20909;BME280;10614;53.198;6.570;2022-09-30T04:08:10;100852.66;;;7.92;100.00
20909;BME280;10614;53.198;6.570;2022-09-30T04:10:11;100863.28;;;7.87;100.00
20909;BME280;10614;53.198;6.570;2022-09-30T04:12:13;100860.78;;;7.82;100.00
20909;BME280;10614;53.198;6.570;2022-09-30T04:14:16;100860.81;;;7.81;100.00
20909;BME280;10614;53.198;6.570;2022-09-30T04:16:18;100873.09;;;7.79;100.00
20909;BME280;10614;53.198;6.570;2022-09-30T04:18:21;100870.56;;;7.77;100.00
20909;BME280;10614;53.198;6.570;2022-09-30T04:20:24;100866.16;;;7.78;100.00
20909;BME280;10614;53.198;6.570;2022-09-30T04:22:26;100863.53;;;7.78;100.00
20909;BME280;10614;53.198;6.570;2022-09-30T04:24:28;100864.44;;;7.77;100.00
20909;BME280;10614;53.198;6.570;2022-09-30T04:26:30;100864.41;;;7.78;100.00
20909;BME280;10614;53.198;6.570;2022-09-30T04:28:32;100868.81;;;7.76;100.00
20909;BME280;10614;53.198;6.570;2022-09-30T04:30:36;100870.63;;;7.74;100.00
20909;BME280;10614;53.198;6.570;2022-09-30T04:32:41;100864.53;;;7.74;100.00
20909;BME280;10614;53.198;6.570;2022-09-30T04:34:44;100863.69;;;7.72;100.00
20909;BME280;10614;53.198;6.570;2022-09-30T04:36:46;100867.09;;;7.75;100.00
20909;BME280;10614;53.198;6.570;2022-09-30T04:38:48;100867.97;;;7.76;100.00
20909;BME280;10614;53.198;6.570;2022-09-30T04:40:49;100867.97;;;7.76;100.00
20909;BME280;10614;53.198;6.570;2022-09-30T04:42:55;100869.75;;;7.74;100.00
20909;BME280;10614;53.198;6.570;2022-09-30T04:44:57;100878.44;;;7.76;100.00
20909;BME280;10614;53.198;6.570;2022-09-30T04:47:00;100891.53;;;7.76;100.00
20909;BME280;10614;53.198;6.570;2022-09-30T04:49:02;100890.72;;;7.74;100.00
20909;BME280;10614;53.198;6.570;2022-09-30T04:51:04;100887.28;;;7.72;100.00
20909;BME280;10614;53.198;6.570;2022-09-30T04:53:06;100888.22;;;7.69;100.00
20909;BME280;10614;53.198;6.570;2022-09-30T04:55:09;100893.50;;;7.68;100.00
20909;BME280;10614;53.198;6.570;2022-09-30T04:57:11;100899.69;;;7.65;100.00
20909;BME280;10614;53.198;6.570;2022-09-30T04:59:13;100900.63;;;7.63;100.00
20909;BME280;10614;53.198;6.570;2022-09-30T05:01:16;100901.59;;;7.58;100.00
20909;BME280;10614;53.198;6.570;2022-09-30T05:03:19;100893.91;;;7.54;100.00
20909;BME280;10614;53.198;6.570;2022-09-30T05:05:21;100893.91;;;7.54;100.00
20909;BME280;10614;53.198;6.570;2022-09-30T05:07:22;100889.50;;;7.54;100.00
20909;BME280;10614;53.198;6.570;2022-09-30T05:09:24;100891.28;;;7.54;100.00
20909;BME280;10614;53.198;6.570;2022-09-30T05:11:26;100891.28;;;7.54;100.00
20909;BME280;10614;53.198;6.570;2022-09-30T05:13:30;100894.75;;;7.54;100.00
20909;BME280;10614;53.198;6.570;2022-09-30T05:15:33;100891.22;;;7.55;100.00
20909;BME280;10614;53.198;6.570;2022-09-30T05:17:35;100895.63;;;7.53;100.00
20909;BME280;10614;53.198;6.570;2022-09-30T05:19:38;100894.78;;;7.53;100.00
20909;BME280;10614;53.198;6.570;2022-09-30T05:21:40;100893.06;;;7.52;100.00
20909;BME280;10614;53.198;6.570;2022-09-30T05:23:42;100907.88;;;7.53;100.00
20909;BME280;10614;53.198;6.570;2022-09-30T05:25:44;100906.19;;;7.50;100.00
20909;BME280;10614;53.198;6.570;2022-09-30T05:27:47;100910.63;;;7.48;100.00
20909;BME280;10614;53.198;6.570;2022-09-30T05:29:49;100908.91;;;7.47;100.00
20909;BME280;10614;53.198;6.570;2022-09-30T05:31:50;100902.03;;;7.43;100.00
20909;BME280;10614;53.198;6.570;2022-09-30T05:33:52;100899.41;;;7.43;100.00
20909;BME280;10614;53.198;6.570;2022-09-30T05:35:58;100906.41;;;7.43;100.00
20909;BME280;10614;53.198;6.570;2022-09-30T05:38:00;100905.53;;;7.42;100.00
20909;BME280;10614;53.198;6.570;2022-09-30T05:40:03;100910.75;;;7.42;100.00
20909;BME280;10614;53.198;6.570;2022-09-30T05:42:05;100909.06;;;7.41;100.00
20909;BME280;10614;53.198;6.570;2022-09-30T05:44:06;100907.34;;;7.40;100.00
20909;BME280;10614;53.198;6.570;2022-09-30T05:46:09;100912.59;;;7.40;100.00
20909;BME280;10614;53.198;6.570;2022-09-30T05:48:11;100916.09;;;7.39;100.00
20909;BME280;10614;53.198;6.570;2022-09-30T05:50:13;100916.09;;;7.39;100.00
20909;BME280;10614;53.198;6.570;2022-09-30T05:52:16;100916.28;;;7.33;100.00
20909;BME280;10614;53.198;6.570;2022-09-30T05:54:17;100925.75;;;7.37;100.00
20909;BME280;10614;53.198;6.570;2022-09-30T05:56:19;100923.19;;;7.35;100.00
20909;BME280;10614;53.198;6.570;2022-09-30T05:58:21;100926.63;;;7.37;100.00
20909;BME280;10614;53.198;6.570;2022-09-30T06:00:23;100928.34;;;7.38;100.00
20909;BME280;10614;53.198;6.570;2022-09-30T06:02:25;100940.50;;;7.39;100.00
20909;BME280;10614;53.198;6.570;2022-09-30T06:04:26;100935.25;;;7.41;100.00
20909;BME280;10614;53.198;6.570;2022-09-30T06:06:28;100933.47;;;7.42;100.00
20909;BME280;10614;53.198;6.570;2022-09-30T06:08:32;100930.88;;;7.42;100.00
20909;BME280;10614;53.198;6.570;2022-09-30T06:10:34;100929.97;;;7.43;100.00
20909;BME280;10614;53.198;6.570;2022-09-30T06:12:36;100926.47;;;7.42;100.00
20909;BME280;10614;53.198;6.570;2022-09-30T06:14:37;100932.63;;;7.41;100.00
20909;BME280;10614;53.198;6.570;2022-09-30T06:16:39;100933.47;;;7.42;100.00
20909;BME280;10614;53.198;6.570;2022-09-30T06:18:41;100930.00;;;7.41;100.00
20909;BME280;10614;53.198;6.570;2022-09-30T06:20:42;100936.16;;;7.40;100.00
20909;BME280;10614;53.198;6.570;2022-09-30T06:22:44;100941.41;;;7.40;100.00
20909;BME280;10614;53.198;6.570;2022-09-30T06:24:47;100938.78;;;7.40;100.00
20909;BME280;10614;53.198;6.570;2022-09-30T06:26:49;100932.63;;;7.41;100.00
20909;BME280;10614;53.198;6.570;2022-09-30T06:28:51;100943.97;;;7.42;100.00
20909;BME280;10614;53.198;6.570;2022-09-30T06:30:53;100942.25;;;7.40;100.00
20909;BME280;10614;53.198;6.570;2022-09-30T06:32:56;100944.03;;;7.38;100.00
20909;BME280;10614;53.198;6.570;2022-09-30T06:34:57;100945.81;;;7.38;100.00
20909;BME280;10614;53.198;6.570;2022-09-30T06:36:59;100948.44;;;7.38;100.00
20909;BME280;10614;53.198;6.570;2022-09-30T06:39:02;100952.72;;;7.40;100.00
20909;BME280;10614;53.198;6.570;2022-09-30T06:41:07;100956.19;;;7.41;100.00
20909;BME280;10614;53.198;6.570;2022-09-30T06:43:09;100954.41;;;7.43;100.00
20909;BME280;10614;53.198;6.570;2022-09-30T06:45:10;100957.84;;;7.45;100.00
20909;BME280;10614;53.198;6.570;2022-09-30T06:47:12;100949.94;;;7.47;100.00
20909;BME280;10614;53.198;6.570;2022-09-30T06:49:14;100961.22;;;7.50;100.00
20909;BME280;10614;53.198;6.570;2022-09-30T06:51:16;100971.66;;;7.52;100.00
20909;BME280;10614;53.198;6.570;2022-09-30T06:53:17;100965.41;;;7.56;100.00
20909;BME280;10614;53.198;6.570;2022-09-30T06:55:19;100953.22;;;7.56;100.00
20909;BME280;10614;53.198;6.570;2022-09-30T06:57:25;100952.25;;;7.59;100.00
20909;BME280;10614;53.198;6.570;2022-09-30T06:59:27;100946.09;;;7.60;100.00
20909;BME280;10614;53.198;6.570;2022-09-30T07:01:28;100951.25;;;7.63;100.00
20909;BME280;10614;53.198;6.570;2022-09-30T07:03:33;100946.91;;;7.64;100.00
20909;BME280;10614;53.198;6.570;2022-09-30T07:05:35;100947.72;;;7.66;100.00
20909;BME280;10614;53.198;6.570;2022-09-30T07:07:37;100940.66;;;7.68;100.00
20909;BME280;10614;53.198;6.570;2022-09-30T07:09:39;100947.63;;;7.69;100.00
20909;BME280;10614;53.198;6.570;2022-09-30T07:11:42;100947.59;;;7.70;100.00
20909;BME280;10614;53.198;6.570;2022-09-30T07:13:46;100943.22;;;7.71;100.00
20909;BME280;10614;53.198;6.570;2022-09-30T07:15:48;100945.72;;;7.75;100.00
20909;BME280;10614;53.198;6.570;2022-09-30T07:17:53;100949.19;;;7.76;100.00
20909;BME280;10614;53.198;6.570;2022-09-30T07:19:56;100956.09;;;7.78;100.00
20909;BME280;10614;53.198;6.570;2022-09-30T07:21:58;100946.44;;;7.80;100.00
20909;BME280;10614;53.198;6.570;2022-09-30T07:24:20;100952.50;;;7.82;100.00
20909;BME280;10614;53.198;6.570;2022-09-30T07:26:22;100949.84;;;7.84;100.00
20909;BME280;10614;53.198;6.570;2022-09-30T07:28:25;100951.56;;;7.85;100.00
20909;BME280;10614;53.198;6.570;2022-09-30T07:30:32;100954.09;;;7.88;100.00
20909;BME280;10614;53.198;6.570;2022-09-30T07:32:34;100954.06;;;7.90;100.00
20909;BME280;10614;53.198;6.570;2022-09-30T07:34:36;100956.59;;;7.93;100.00
20909;BME280;10614;53.198;6.570;2022-09-30T07:36:39;100955.66;;;7.95;100.00
20909;BME280;10614;53.198;6.570;2022-09-30T07:38:41;100954.78;;;7.96;100.00
20909;BME280;10614;53.198;6.570;2022-09-30T07:40:51;100953.75;;;8.00;100.00
20909;BME280;10614;53.198;6.570;2022-09-30T07:42:53;100957.19;;;8.02;100.00
20909;BME280;10614;53.198;6.570;2022-09-30T07:44:55;100960.59;;;8.06;100.00
20909;BME280;10614;53.198;6.570;2022-09-30T07:46:59;100959.66;;;8.09;100.00
20909;BME280;10614;53.198;6.570;2022-09-30T07:49:00;100970.13;;;8.10;100.00
20909;BME280;10614;53.198;6.570;2022-09-30T07:51:03;100965.63;;;8.14;100.00
20909;BME280;10614;53.198;6.570;2022-09-30T07:53:04;100975.13;;;8.18;100.00
20909;BME280;10614;53.198;6.570;2022-09-30T07:55:06;100954.16;;;8.18;100.00
20909;BME280;10614;53.198;6.570;2022-09-30T07:57:08;100962.84;;;8.20;100.00
20909;BME280;10614;53.198;6.570;2022-09-30T07:59:11;100962.78;;;8.21;100.00
20909;BME280;10614;53.198;6.570;2022-09-30T08:01:13;100957.50;;;8.23;100.00
20909;BME280;10614;53.198;6.570;2022-09-30T08:03:17;100960.94;;;8.25;100.00
20909;BME280;10614;53.198;6.570;2022-09-30T08:05:18;100948.66;;;8.27;100.00
20909;BME280;10614;53.198;6.570;2022-09-30T08:07:20;100958.19;;;8.30;100.00
20909;BME280;10614;53.198;6.570;2022-09-30T08:09:25;100949.41;;;8.31;100.00
20909;BME280;10614;53.198;6.570;2022-09-30T08:11:27;100955.44;;;8.34;100.00
20909;BME280;10614;53.198;6.570;2022-09-30T08:13:29;100961.53;;;8.35;100.00
20909;BME280;10614;53.198;6.570;2022-09-30T08:15:30;100964.06;;;8.38;100.00
20909;BME280;10614;53.198;6.570;2022-09-30T08:17:32;100962.25;;;8.41;100.00
20909;BME280;10614;53.198;6.570;2022-09-30T08:19:35;100956.91;;;8.44;100.00
20909;BME280;10614;53.198;6.570;2022-09-30T08:21:37;100961.22;;;8.47;100.00
20909;BME280;10614;53.198;6.570;2022-09-30T08:23:39;100955.09;;;8.47;100.00
20909;BME280;10614;53.198;6.570;2022-09-30T08:25:41;100954.94;;;8.53;100.00
20909;BME280;10614;53.198;6.570;2022-09-30T08:27:43;100958.31;;;8.56;100.00
20909;BME280;10614;53.198;6.570;2022-09-30T08:29:44;100958.25;;;8.59;100.00
20909;BME280;10614;53.198;6.570;2022-09-30T08:31:46;100949.41;;;8.62;100.00
20909;BME280;10614;53.198;6.570;2022-09-30T08:33:49;100953.66;;;8.66;100.00
20909;BME280;10614;53.198;6.570;2022-09-30T08:35:52;100944.84;;;8.69;100.00
20909;BME280;10614;53.198;6.570;2022-09-30T08:37:54;100947.38;;;8.72;100.00
20909;BME280;10614;53.198;6.570;2022-09-30T08:39:55;100949.84;;;8.76;100.00
20909;BME280;10614;53.198;6.570;2022-09-30T08:42:07;100945.34;;;8.80;100.00
20909;BME280;10614;53.198;6.570;2022-09-30T08:44:25;100943.47;;;8.85;100.00
20909;BME280;10614;53.198;6.570;2022-09-30T08:46:43;100939.81;;;8.89;100.00
20909;BME280;10614;53.198;6.570;2022-09-30T08:48:52;100944.94;;;8.94;100.00
20909;BME280;10614;53.198;6.570;2022-09-30T08:51:06;100937.75;;;8.99;100.00
20909;BME280;10614;53.198;6.570;2022-09-30T08:53:16;100937.69;;;9.02;100.00
20909;BME280;10614;53.198;6.570;2022-09-30T08:55:24;100930.50;;;9.07;100.00
20909;BME280;10614;53.198;6.570;2022-09-30T08:57:27;100935.66;;;9.10;100.00
20909;BME280;10614;53.198;6.570;2022-09-30T08:59:36;100940.72;;;9.16;100.00
20909;BME280;10614;53.198;6.570;2022-09-30T09:01:41;100937.94;;;9.21;100.00
20909;BME280;10614;53.198;6.570;2022-09-30T09:03:44;100943.94;;;9.24;100.00
20909;BME280;10614;53.198;6.570;2022-09-30T09:05:52;100944.72;;;9.28;100.00
20909;BME280;10614;53.198;6.570;2022-09-30T09:08:03;100947.19;;;9.33;100.00
20909;BME280;10614;53.198;6.570;2022-09-30T09:10:22;100945.25;;;9.38;100.00
20909;BME280;10614;53.198;6.570;2022-09-30T09:12:34;100946.88;;;9.42;100.00
20909;BME280;10614;53.198;6.570;2022-09-30T09:14:43;100951.91;;;9.48;100.00
20909;BME280;10614;53.198;6.570;2022-09-30T09:17:01;100950.00;;;9.53;100.00
20909;BME280;10614;53.198;6.570;2022-09-30T09:19:09;100941.91;;;9.59;100.00
20909;BME280;10614;53.198;6.570;2022-09-30T09:21:19;100943.56;;;9.62;100.00
20909;BME280;10614;53.198;6.570;2022-09-30T09:23:29;100946.03;;;9.66;100.00
20909;BME280;10614;53.198;6.570;2022-09-30T09:25:33;100949.34;;;9.71;100.00
20909;BME280;10614;53.198;6.570;2022-09-30T09:27:42;100942.28;;;9.73;100.00
20909;BME280;10614;53.198;6.570;2022-09-30T09:29:52;100946.56;;;9.76;100.00
20909;BME280;10614;53.198;6.570;2022-09-30T09:32:00;100954.38;;;9.79;100.00
20909;BME280;10614;53.198;6.570;2022-09-30T09:34:08;100974.38;;;9.83;100.00
20909;BME280;10614;53.198;6.570;2022-09-30T09:36:29;100971.69;;;9.85;100.00
20909;BME280;10614;53.198;6.570;2022-09-30T09:38:43;100977.75;;;9.87;100.00
20909;BME280;10614;53.198;6.570;2022-09-30T09:41:05;100975.94;;;9.89;100.00
20909;BME280;10614;53.198;6.570;2022-09-30T09:43:18;100969.72;;;9.91;100.00
20909;BME280;10614;53.198;6.570;2022-09-30T09:45:28;100969.66;;;9.93;100.00
20909;BME280;10614;53.198;6.570;2022-09-30T09:47:35;100962.66;;;9.92;100.00
20909;BME280;10614;53.198;6.570;2022-09-30T09:49:38;100966.09;;;9.94;100.00
20909;BME280;10614;53.198;6.570;2022-09-30T09:51:43;100966.91;;;9.96;100.00
20909;BME280;10614;53.198;6.570;2022-09-30T09:53:50;100969.41;;;9.99;100.00
20909;BME280;10614;53.198;6.570;2022-09-30T09:55:54;100966.72;;;10.02;100.00
20909;BME280;10614;53.198;6.570;2022-09-30T09:58:08;100962.22;;;10.04;100.00
20909;BME280;10614;53.198;6.570;2022-09-30T10:00:21;100952.50;;;10.06;100.00
20909;BME280;10614;53.198;6.570;2022-09-30T10:02:41;100959.44;;;10.09;100.00
20909;BME280;10614;53.198;6.570;2022-09-30T10:04:47;100951.44;;;10.12;100.00
20909;BME280;10614;53.198;6.570;2022-09-30T10:06:52;100948.66;;;10.17;100.00
20909;BME280;10614;53.198;6.570;2022-09-30T10:08:56;100956.41;;;10.20;100.00
20909;BME280;10614;53.198;6.570;2022-09-30T10:10:58;100953.66;;;10.23;100.00
20909;BME280;10614;53.198;6.570;2022-09-30T10:13:01;100960.59;;;10.25;100.00
20909;BME280;10614;53.198;6.570;2022-09-30T10:15:12;100957.00;;;10.28;100.00
20909;BME280;10614;53.198;6.570;2022-09-30T10:17:18;100957.78;;;10.31;100.00
20909;BME280;10614;53.198;6.570;2022-09-30T10:19:24;100955.03;;;10.34;100.00
20909;BME280;10614;53.198;6.570;2022-09-30T10:21:28;100956.63;;;10.39;100.00
20909;BME280;10614;53.198;6.570;2022-09-30T10:23:31;100958.28;;;10.41;100.00
20909;BME280;10614;53.198;6.570;2022-09-30T10:25:35;100957.38;;;10.42;100.00
20909;BME280;10614;53.198;6.570;2022-09-30T10:27:39;100961.56;;;10.48;100.00
20909;BME280;10614;53.198;6.570;2022-09-30T10:29:47;100959.59;;;10.53;100.00
20909;BME280;10614;53.198;6.570;2022-09-30T10:31:49;100945.41;;;10.57;100.00
20909;BME280;10614;53.198;6.570;2022-09-30T10:33:56;100947.88;;;10.62;100.00
20909;BME280;10614;53.198;6.570;2022-09-30T10:36:05;100938.09;;;10.65;100.00
20909;BME280;10614;53.198;6.570;2022-09-30T10:38:11;100941.31;;;10.72;100.00
20909;BME280;10614;53.198;6.570;2022-09-30T10:40:15;100936.75;;;10.77;100.00
20909;BME280;10614;53.198;6.570;2022-09-30T10:42:21;100933.00;;;10.83;100.00
20909;BME280;10614;53.198;6.570;2022-09-30T10:44:24;100930.88;;;10.92;100.00
20909;BME280;10614;53.198;6.570;2022-09-30T10:46:29;100936.75;;;10.99;100.00
20909;BME280;10614;53.198;6.570;2022-09-30T10:48:32;100928.66;;;11.04;100.00
20909;BME280;10614;53.198;6.570;2022-09-30T10:50:35;100927.63;;;11.08;100.00
20909;BME280;10614;53.198;6.570;2022-09-30T10:52:39;100930.00;;;11.14;100.00
20909;BME280;10614;53.198;6.570;2022-09-30T10:54:48;100925.34;;;11.20;100.00
20909;BME280;10614;53.198;6.570;2022-09-30T10:56:51;100917.22;;;11.25;100.00